Time;durP1;ratioP1;P1;durP2;ratioP2;P2;SDS_P1;SDS_P2;PMS_P1;PMS_P2;Temp;Humidity;BMP_temperature;BMP_pressure;BME280_temperature;BME280_humidity;BME280_pressure;Samples;Min_cycle;Max_cycle;Signal;HPM_P1;HPM_P2
2023/05/24 00:01:42;;;;;;;9.40;8.57;;;16.60;99.90;;;;;;5034850;28;20206;-56
2023/05/24 00:04:09;;;;;;;8.90;8.10;;;16.60;99.90;;;;;;5032515;28;20264;-56
2023/05/24 00:06:36;;;;;;;9.17;8.37;;;16.60;99.90;;;;;;5042015;28;20254;-56
2023/05/24 00:09:04;;;;;;;9.70;8.77;;;16.50;99.90;;;;;;5044168;28;20694;-56
2023/05/24 00:11:31;;;;;;;10.37;8.47;;;16.50;99.90;;;;;;5039761;28;20256;-57
2023/05/24 00:13:59;;;;;;;9.30;8.37;;;16.50;99.90;;;;;;5043327;28;20218;-56
2023/05/24 00:16:26;;;;;;;10.40;9.27;;;16.40;99.90;;;;;;5037022;28;20230;-56
2023/05/24 00:18:53;;;;;;;10.03;9.13;;;16.40;99.90;;;;;;5040435;28;20343;-56
2023/05/24 00:21:20;;;;;;;9.23;8.27;;;16.30;99.90;;;;;;5039367;28;20727;-56
2023/05/24 00:23:47;;;;;;;9.23;8.43;;;16.30;99.90;;;;;;5036987;28;20332;-56
2023/05/24 00:26:14;;;;;;;8.77;7.97;;;16.40;99.90;;;;;;5039652;28;20230;-56
2023/05/24 00:28:41;;;;;;;8.90;8.17;;;16.30;99.90;;;;;;5032703;28;20210;-56
2023/05/24 00:31:09;;;;;;;9.13;8.43;;;16.30;99.90;;;;;;5041408;28;20202;-56
2023/05/24 00:33:36;;;;;;;9.37;8.47;;;16.30;99.90;;;;;;5031699;28;20696;-56
2023/05/24 00:36:03;;;;;;;11.33;8.57;;;16.30;99.90;;;;;;5038330;28;20660;-56
2023/05/24 00:38:30;;;;;;;10.10;9.20;;;16.20;99.90;;;;;;5035523;28;20280;-56
2023/05/24 00:40:59;;;;;;;9.67;8.73;;;16.20;99.90;;;;;;5032783;28;20704;-56
2023/05/24 00:43:26;;;;;;;9.00;8.20;;;16.10;99.90;;;;;;5032425;28;20656;-56
2023/05/24 00:46:15;;;;;;;9.07;8.30;;;16.00;99.90;;;;;;5032697;28;20234;-56
2023/05/24 00:48:42;;;;;;;10.37;9.40;;;16.00;99.90;;;;;;5033051;28;20203;-56
2023/05/24 00:51:10;;;;;;;8.17;7.30;;;16.00;99.90;;;;;;5034626;28;20618;-56
2023/05/24 00:53:38;;;;;;;10.20;9.07;;;16.00;99.90;;;;;;5031172;28;20623;-56
2023/05/24 00:56:05;;;;;;;8.63;7.83;;;16.00;99.90;;;;;;5030466;28;20215;-56
2023/05/24 00:58:33;;;;;;;8.57;7.77;;;16.00;99.90;;;;;;5029288;28;20202;-56
2023/05/24 01:01:01;;;;;;;9.40;8.57;;;16.00;99.90;;;;;;5032848;28;20630;-56
2023/05/24 01:03:30;;;;;;;8.20;7.40;;;16.00;99.90;;;;;;5034968;28;20202;-54
2023/05/24 01:05:58;;;;;;;7.77;7.07;;;16.00;99.90;;;;;;5043238;28;20222;-54
2023/05/24 01:08:43;;;;;;;7.50;6.90;;;16.00;99.90;;;;;;5033693;28;20256;-54
2023/05/24 01:11:21;;;;;;;7.90;7.33;;;16.00;99.90;;;;;;5028587;28;20264;-56
2023/05/24 01:13:54;;;;;;;7.53;7.00;;;16.00;99.90;;;;;;5031723;28;20280;-54
2023/05/24 01:16:27;;;;;;;7.77;7.17;;;16.00;99.90;;;;;;5038953;28;20650;-54
2023/05/24 01:19:00;;;;;;;7.83;7.13;;;15.90;99.90;;;;;;5033977;28;20209;-54
2023/05/24 01:21:47;;;;;;;8.17;7.50;;;15.80;99.90;;;;;;5036365;28;20191;-55
2023/05/24 01:24:23;;;;;;;7.03;6.43;;;15.80;99.90;;;;;;5039440;28;20213;-54
2023/05/24 01:27:05;;;;;;;8.60;6.40;;;15.80;99.90;;;;;;5045754;28;20230;-54
2023/05/24 01:29:34;;;;;;;6.87;6.27;;;15.80;99.90;;;;;;5034058;28;20711;-55
2023/05/24 01:32:05;;;;;;;8.03;6.50;;;15.70;99.90;;;;;;5030104;28;20256;-54
2023/05/24 01:34:32;;;;;;;6.80;6.40;;;15.70;99.90;;;;;;5044406;28;20257;-55
2023/05/24 01:36:59;;;;;;;7.00;6.50;;;15.80;99.90;;;;;;5039368;28;20229;-54
2023/05/24 01:39:29;;;;;;;6.83;6.20;;;15.70;99.90;;;;;;5036901;28;20198;-54
2023/05/24 01:42:08;;;;;;;6.77;6.23;;;15.70;99.90;;;;;;5029577;28;20281;-54
2023/05/24 01:44:41;;;;;;;6.00;5.50;;;15.70;99.90;;;;;;5037991;28;20275;-54
2023/05/24 01:47:20;;;;;;;6.53;6.00;;;15.70;99.90;;;;;;5082204;22;20302;-60
2023/05/24 01:49:50;;;;;;;5.27;4.97;;;15.70;99.90;;;;;;5072065;28;20662;-60
2023/05/24 01:52:22;;;;;;;5.97;5.47;;;15.70;99.90;;;;;;5071485;28;20193;-60
2023/05/24 01:54:52;;;;;;;5.70;5.20;;;15.70;99.90;;;;;;5071777;28;20267;-60
2023/05/24 01:57:22;;;;;;;5.83;5.43;;;15.70;99.90;;;;;;5062437;28;20275;-60
2023/05/24 01:59:50;;;;;;;5.73;5.23;;;15.70;99.90;;;;;;5062266;28;20255;-60
2023/05/24 02:02:18;;;;;;;4.77;4.47;;;15.70;99.90;;;;;;5048904;28;20204;-60
2023/05/24 02:04:45;;;;;;;5.43;5.13;;;15.70;99.90;;;;;;5057494;28;20197;-60
2023/05/24 02:07:12;;;;;;;5.13;4.63;;;15.60;99.90;;;;;;5056992;28;20221;-60
2023/05/24 02:09:39;;;;;;;4.37;4.07;;;15.50;99.90;;;;;;5050445;28;20206;-60
2023/05/24 02:12:07;;;;;;;5.20;4.90;;;15.50;99.90;;;;;;5059088;28;20202;-60
2023/05/24 02:14:36;;;;;;;4.70;4.40;;;15.40;99.90;;;;;;5068493;28;20213;-60
2023/05/24 02:17:05;;;;;;;4.60;4.20;;;15.40;99.90;;;;;;5060346;28;20222;-60
2023/05/24 02:19:33;;;;;;;5.37;5.07;;;15.40;99.90;;;;;;5067642;28;20217;-60
2023/05/24 02:22:03;;;;;;;4.93;4.63;;;15.40;99.90;;;;;;5066505;28;20205;-60
2023/05/24 02:24:30;;;;;;;5.30;4.87;;;15.40;99.90;;;;;;5057491;28;20229;-60
2023/05/24 02:26:57;;;;;;;6.10;5.60;;;15.30;99.90;;;;;;5053601;28;20268;-60
2023/05/24 02:29:24;;;;;;;5.00;4.73;;;15.40;99.90;;;;;;5052350;28;20205;-60
2023/05/24 02:31:55;;;;;;;5.00;4.53;;;15.30;99.90;;;;;;5049631;28;20233;-60
2023/05/24 02:34:23;;;;;;;5.07;4.77;;;15.40;99.90;;;;;;5052625;28;20268;-60
2023/05/24 02:36:50;;;;;;;5.17;4.87;;;15.40;99.90;;;;;;5060181;28;20217;-60
2023/05/24 02:39:17;;;;;;;5.50;5.07;;;15.30;99.90;;;;;;5063735;28;20254;-60
2023/05/24 02:41:44;;;;;;;5.50;5.10;;;15.30;99.90;;;;;;5068737;28;20201;-60
2023/05/24 02:44:11;;;;;;;4.40;4.20;;;15.30;99.90;;;;;;5064044;28;20194;-60
2023/05/24 02:46:38;;;;;;;4.53;4.23;;;15.20;99.90;;;;;;5065787;28;20228;-60
2023/05/24 02:49:06;;;;;;;5.17;4.87;;;15.20;99.90;;;;;;5060021;28;20214;-60
2023/05/24 02:51:33;;;;;;;5.10;4.80;;;15.20;99.90;;;;;;5057292;28;20209;-60
2023/05/24 02:54:00;;;;;;;5.67;5.17;;;15.30;99.90;;;;;;5062218;28;20225;-61
2023/05/24 02:56:28;;;;;;;4.57;4.27;;;15.20;99.90;;;;;;5064926;28;20221;-60
2023/05/24 02:58:55;;;;;;;5.13;4.83;;;15.20;99.90;;;;;;5052117;28;20208;-60
2023/05/24 03:01:22;;;;;;;6.43;5.53;;;15.20;99.90;;;;;;5063313;28;20240;-60
2023/05/24 03:03:49;;;;;;;5.67;5.20;;;15.20;99.90;;;;;;5063134;28;20655;-60
2023/05/24 03:06:17;;;;;;;6.03;5.57;;;15.20;99.90;;;;;;5066640;28;20221;-60
2023/05/24 03:08:44;;;;;;;5.03;4.73;;;15.20;99.90;;;;;;5063273;28;20196;-60
2023/05/24 03:11:11;;;;;;;5.70;5.17;;;15.20;99.90;;;;;;5064153;28;20197;-60
2023/05/24 03:13:39;;;;;;;6.27;5.30;;;15.20;99.90;;;;;;5051327;28;20232;-60
2023/05/24 03:16:06;;;;;;;6.03;5.63;;;15.20;99.90;;;;;;5051717;28;20597;-60
2023/05/24 03:18:33;;;;;;;5.77;5.33;;;15.20;99.90;;;;;;5051724;28;20206;-60
2023/05/24 03:21:00;;;;;;;6.50;6.00;;;15.20;99.90;;;;;;5048484;28;20202;-60
2023/05/24 03:23:28;;;;;;;5.40;5.10;;;15.10;99.90;;;;;;5055216;28;20204;-60
2023/05/24 03:25:55;;;;;;;7.17;6.73;;;15.20;99.90;;;;;;5049684;28;20263;-60
2023/05/24 03:28:23;;;;;;;6.13;5.63;;;15.20;99.90;;;;;;5051541;28;20205;-60
2023/05/24 03:30:50;;;;;;;6.13;5.80;;;15.20;99.90;;;;;;5049630;28;20690;-60
2023/05/24 03:33:17;;;;;;;6.03;5.60;;;15.10;99.90;;;;;;5051115;28;20196;-60
2023/05/24 03:35:44;;;;;;;6.70;6.10;;;15.10;99.90;;;;;;5051362;28;20222;-60
2023/05/24 03:38:11;;;;;;;6.20;5.40;;;15.20;99.90;;;;;;5051463;28;20683;-60
2023/05/24 03:40:39;;;;;;;5.13;4.77;;;15.10;99.90;;;;;;5057887;28;20256;-60
2023/05/24 03:43:06;;;;;;;6.23;5.83;;;15.20;99.90;;;;;;5050887;28;20255;-60
2023/05/24 03:45:33;;;;;;;7.10;6.60;;;15.10;99.90;;;;;;5050222;28;20217;-61
2023/05/24 03:48:00;;;;;;;6.60;6.20;;;15.10;99.90;;;;;;5052307;28;20213;-60
2023/05/24 03:50:27;;;;;;;6.97;6.43;;;15.10;99.90;;;;;;5058481;28;20263;-61
2023/05/24 03:52:54;;;;;;;6.73;6.20;;;15.10;99.90;;;;;;5049547;28;20209;-60
2023/05/24 03:55:21;;;;;;;6.73;6.27;;;15.10;99.90;;;;;;5056454;28;20219;-61
2023/05/24 03:57:49;;;;;;;6.67;6.07;;;15.10;99.90;;;;;;5059278;28;20201;-60
2023/05/24 04:00:17;;;;;;;7.37;6.77;;;15.10;99.90;;;;;;5051157;28;20228;-61
2023/05/24 04:02:44;;;;;;;7.10;6.40;;;15.20;99.90;;;;;;5051098;28;20210;-61
2023/05/24 04:05:11;;;;;;;6.93;6.43;;;15.20;99.90;;;;;;5054053;28;20198;-61
2023/05/24 04:07:38;;;;;;;6.10;5.60;;;15.10;99.90;;;;;;5062958;28;20201;-61
2023/05/24 04:10:06;;;;;;;6.97;6.47;;;15.10;99.90;;;;;;5071280;28;20204;-61
2023/05/24 04:12:34;;;;;;;6.97;6.47;;;15.10;99.90;;;;;;5062283;28;20265;-61
2023/05/24 04:15:02;;;;;;;7.70;7.10;;;15.20;99.90;;;;;;5061816;28;20229;-61
2023/05/24 04:17:33;;;;;;;7.07;6.33;;;15.20;99.90;;;;;;5065331;28;20226;-61
2023/05/24 04:20:00;;;;;;;7.33;6.70;;;15.20;99.90;;;;;;5061108;28;20240;-60
2023/05/24 04:22:27;;;;;;;7.50;6.93;;;15.20;99.90;;;;;;5065272;28;20247;-61
2023/05/24 04:24:54;;;;;;;7.63;7.03;;;15.10;99.90;;;;;;5061408;28;20202;-60
2023/05/24 04:27:21;;;;;;;7.77;7.03;;;15.10;99.90;;;;;;5057167;28;20224;-61
2023/05/24 04:29:48;;;;;;;8.57;7.80;;;15.10;99.90;;;;;;5050213;28;20205;-60
2023/05/24 04:32:18;;;;;;;7.87;7.37;;;15.10;99.90;;;;;;5060223;28;20199;-61
2023/05/24 04:34:45;;;;;;;8.57;7.83;;;15.10;99.90;;;;;;5053356;28;20225;-60
2023/05/24 04:37:16;;;;;;;8.77;8.00;;;15.00;99.90;;;;;;5054354;28;20245;-60
2023/05/24 04:39:43;;;;;;;9.40;8.50;;;15.00;99.90;;;;;;5061700;28;20209;-60
2023/05/24 04:42:11;;;;;;;7.30;6.70;;;14.90;99.90;;;;;;5057709;28;20193;-60
2023/05/24 04:44:40;;;;;;;8.73;7.90;;;14.90;99.90;;;;;;5060104;28;20230;-60
2023/05/24 04:47:07;;;;;;;8.87;8.17;;;14.80;99.90;;;;;;5055816;28;20341;-60
2023/05/24 04:49:36;;;;;;;9.77;9.03;;;14.90;99.90;;;;;;5066816;28;20201;-61
2023/05/24 04:52:04;;;;;;;8.00;7.47;;;14.80;99.90;;;;;;5056295;28;20293;-60
2023/05/24 04:54:31;;;;;;;8.33;7.73;;;14.80;99.90;;;;;;5051690;28;20226;-61
2023/05/24 04:56:58;;;;;;;8.90;8.20;;;14.80;99.90;;;;;;5062949;28;20217;-60
2023/05/24 04:59:26;;;;;;;8.97;8.37;;;14.80;99.90;;;;;;5074280;28;20259;-61
2023/05/24 05:01:53;;;;;;;9.53;8.73;;;14.90;99.90;;;;;;5056350;28;20198;-60
2023/05/24 05:04:20;;;;;;;10.17;9.10;;;14.90;99.90;;;;;;5061749;28;20563;-60
2023/05/24 05:06:48;;;;;;;9.97;9.17;;;14.80;99.90;;;;;;5070513;28;20247;-60
2023/05/24 05:09:16;;;;;;;9.20;8.37;;;14.70;99.90;;;;;;5062131;28;20686;-61
2023/05/24 05:11:43;;;;;;;9.90;9.13;;;14.60;99.90;;;;;;5052399;28;20210;-60
2023/05/24 05:14:10;;;;;;;9.73;8.83;;;14.60;99.90;;;;;;5055363;28;20247;-60
2023/05/24 05:16:37;;;;;;;10.43;9.30;;;14.60;99.90;;;;;;5055117;28;20601;-60
2023/05/24 05:19:05;;;;;;;11.07;10.07;;;14.70;99.90;;;;;;5055649;28;20255;-60
2023/05/24 05:21:32;;;;;;;11.70;10.70;;;14.60;99.90;;;;;;5070162;28;20201;-60
2023/05/24 05:24:01;;;;;;;10.03;9.20;;;14.60;99.90;;;;;;5068251;28;20280;-60
2023/05/24 05:26:28;;;;;;;12.03;10.83;;;14.50;99.90;;;;;;5053388;28;20229;-60
2023/05/24 05:28:55;;;;;;;11.43;10.33;;;14.40;99.90;;;;;;5053626;28;20218;-60
2023/05/24 05:31:22;;;;;;;11.77;10.67;;;14.30;99.90;;;;;;5061007;28;20198;-60
2023/05/24 05:33:50;;;;;;;11.27;10.13;;;14.20;99.90;;;;;;5054521;28;20236;-60
2023/05/24 05:36:17;;;;;;;11.27;10.37;;;14.10;99.90;;;;;;5045698;28;20225;-60
2023/05/24 05:38:45;;;;;;;12.73;11.57;;;14.00;99.90;;;;;;5051247;28;20206;-60
2023/05/24 05:41:13;;;;;;;12.40;11.30;;;14.00;99.90;;;;;;5053248;28;20624;-60
2023/05/24 05:43:40;;;;;;;12.47;11.27;;;13.90;99.90;;;;;;5054791;28;20206;-60
2023/05/24 05:46:09;;;;;;;12.60;11.27;;;13.90;99.90;;;;;;5056474;28;20228;-60
2023/05/24 05:48:36;;;;;;;13.33;11.77;;;13.90;99.90;;;;;;5072979;28;20212;-60
2023/05/24 05:51:03;;;;;;;12.60;11.30;;;13.80;99.90;;;;;;5057361;28;20198;-60
2023/05/24 05:53:33;;;;;;;12.73;11.43;;;13.80;99.90;;;;;;5052474;28;20201;-60
2023/05/24 05:56:00;;;;;;;11.47;10.40;;;13.70;99.90;;;;;;5053017;28;20272;-60
2023/05/24 05:58:29;;;;;;;13.17;11.80;;;13.70;99.90;;;;;;5052765;28;20250;-60
2023/05/24 06:00:57;;;;;;;9.37;8.47;;;13.60;99.90;;;;;;5049776;28;20205;-60
2023/05/24 06:03:24;;;;;;;9.10;8.27;;;13.60;99.90;;;;;;5057928;28;20729;-60
2023/05/24 06:05:51;;;;;;;7.00;6.43;;;13.50;99.90;;;;;;5054889;28;20213;-60
2023/05/24 06:08:18;;;;;;;9.53;8.53;;;13.40;99.90;;;;;;5051943;28;20254;-60
2023/05/24 06:10:45;;;;;;;8.17;7.40;;;13.30;99.90;;;;;;5052607;28;20200;-60
2023/05/24 06:13:14;;;;;;;10.20;9.20;;;13.30;99.90;;;;;;5052294;28;20213;-60
2023/05/24 06:15:42;;;;;;;10.70;9.70;;;13.10;99.90;;;;;;5051295;28;20226;-60
2023/05/24 06:18:09;;;;;;;11.77;10.53;;;13.00;99.90;;;;;;5050469;28;20200;-60
2023/05/24 06:20:36;;;;;;;11.13;10.07;;;13.00;99.90;;;;;;5059752;28;20200;-60
2023/05/24 06:23:03;;;;;;;12.33;10.23;;;13.00;99.90;;;;;;5065405;28;20198;-59
2023/05/24 06:25:31;;;;;;;11.97;10.77;;;13.00;99.90;;;;;;5048584;28;20204;-60
2023/05/24 06:27:58;;;;;;;13.50;12.07;;;13.00;99.90;;;;;;5052641;28;20201;-60
2023/05/24 06:30:25;;;;;;;13.70;12.27;;;12.90;99.90;;;;;;5061394;28;20250;-60
2023/05/24 06:32:55;;;;;;;19.53;14.63;;;13.00;99.90;;;;;;5066462;28;20208;-59
2023/05/24 06:35:22;;;;;;;14.83;13.33;;;13.00;99.90;;;;;;5050777;28;20699;-61
2023/05/24 06:37:49;;;;;;;20.63;14.30;;;13.10;99.90;;;;;;5051239;28;20288;-60
2023/05/24 06:40:16;;;;;;;17.30;14.60;;;13.10;99.90;;;;;;5051418;28;20271;-60
2023/05/24 06:42:43;;;;;;;19.67;16.10;;;13.10;99.90;;;;;;5057413;28;20826;-60
2023/05/24 06:45:11;;;;;;;18.33;16.30;;;13.20;99.90;;;;;;5057325;28;20224;-60
2023/05/24 06:47:38;;;;;;;18.97;15.53;;;13.10;99.90;;;;;;5050007;28;20259;-60
2023/05/24 06:50:08;;;;;;;17.07;14.20;;;13.30;99.90;;;;;;5061861;28;20251;-60
2023/05/24 06:52:35;;;;;;;17.50;15.20;;;13.30;99.90;;;;;;5050673;28;20737;-60
2023/05/24 06:55:02;;;;;;;21.80;16.57;;;13.40;99.90;;;;;;5055569;28;20224;-60
2023/05/24 06:57:29;;;;;;;19.23;15.43;;;13.40;99.90;;;;;;5049522;28;20222;-60
2023/05/24 06:59:56;;;;;;;15.37;13.60;;;13.50;99.90;;;;;;5057911;28;20208;-60
2023/05/24 07:02:26;;;;;;;17.33;13.83;;;13.60;99.90;;;;;;5057146;28;20221;-60
2023/05/24 07:04:53;;;;;;;17.13;13.67;;;13.70;99.90;;;;;;5050559;28;20280;-60
2023/05/24 07:07:21;;;;;;;17.10;13.27;;;13.60;99.90;;;;;;5047399;28;20225;-60
2023/05/24 07:09:48;;;;;;;12.57;11.13;;;13.70;99.90;;;;;;5051465;28;20196;-60
2023/05/24 07:12:15;;;;;;;15.30;12.60;;;13.60;99.90;;;;;;5051317;28;20219;-60
2023/05/24 07:14:42;;;;;;;15.03;13.43;;;13.60;99.90;;;;;;5050351;28;20224;-60
2023/05/24 07:17:09;;;;;;;16.50;13.90;;;13.60;99.90;;;;;;5049852;28;20663;-60
2023/05/24 07:19:36;;;;;;;17.43;14.60;;;13.60;99.90;;;;;;5050017;28;20628;-60
2023/05/24 07:22:04;;;;;;;16.17;14.47;;;13.60;99.90;;;;;;5049868;28;20260;-60
2023/05/24 07:24:32;;;;;;;14.77;12.73;;;13.50;99.90;;;;;;5052130;28;20589;-60
2023/05/24 07:26:59;;;;;;;15.97;13.00;;;13.50;99.90;;;;;;5051406;28;20715;-60
2023/05/24 07:29:27;;;;;;;16.53;14.83;;;13.60;99.90;;;;;;5049794;28;20252;-60
2023/05/24 07:31:56;;;;;;;13.00;11.63;;;13.70;99.90;;;;;;5051004;28;20202;-60
2023/05/24 07:34:26;;;;;;;15.00;12.40;;;13.70;99.90;;;;;;5049442;28;20212;-60
2023/05/24 07:36:53;;;;;;;17.55;15.00;;;13.50;99.90;;;;;;5065402;28;20454;-60
2023/05/24 07:39:20;;;;;;;14.90;13.40;;;13.50;99.90;;;;;;5051620;28;20200;-60
2023/05/24 07:41:49;;;;;;;14.87;13.33;;;13.40;99.90;;;;;;5046458;28;20208;-60
2023/05/24 07:44:17;;;;;;;14.80;13.20;;;13.30;99.90;;;;;;5051087;28;20584;-60
2023/05/24 07:46:44;;;;;;;15.97;13.63;;;13.30;99.90;;;;;;5050824;28;20699;-60
2023/05/24 07:49:12;;;;;;;15.77;13.70;;;13.40;99.90;;;;;;5050984;28;20209;-61
2023/05/24 07:51:39;;;;;;;17.93;13.53;;;13.50;99.90;;;;;;5048810;28;20207;-61
2023/05/24 07:54:06;;;;;;;14.53;13.00;;;13.50;99.90;;;;;;5048776;28;20258;-60
2023/05/24 07:56:33;;;;;;;13.30;11.90;;;13.50;99.90;;;;;;5069120;22;20548;-56
2023/05/24 07:59:03;;;;;;;14.33;11.23;;;13.60;99.90;;;;;;5008644;28;20220;-56
2023/05/24 08:01:31;;;;;;;13.23;11.30;;;13.50;99.90;;;;;;5006697;28;20206;-56
2023/05/24 08:03:58;;;;;;;13.03;11.67;;;13.50;99.90;;;;;;5010322;28;20206;-56
2023/05/24 08:06:26;;;;;;;14.77;11.50;;;13.50;99.90;;;;;;5020915;28;20267;-56
2023/05/24 08:08:53;;;;;;;13.87;11.43;;;13.50;99.90;;;;;;5017880;28;20202;-56
2023/05/24 08:11:20;;;;;;;14.07;11.93;;;13.60;99.90;;;;;;5010033;28;20226;-56
2023/05/24 08:13:47;;;;;;;12.83;10.90;;;13.60;99.90;;;;;;5012137;28;20210;-56
2023/05/24 08:16:15;;;;;;;13.10;10.90;;;13.70;99.90;;;;;;5014506;28;20631;-56
2023/05/24 08:18:42;;;;;;;15.77;12.20;;;13.90;99.90;;;;;;5014993;28;20203;-56
2023/05/24 08:21:10;;;;;;;13.53;11.57;;;14.10;99.90;;;;;;5014391;28;20742;-56
2023/05/24 08:23:37;;;;;;;14.67;12.03;;;14.00;99.90;;;;;;5014865;28;20257;-56
2023/05/24 08:26:05;;;;;;;12.83;11.50;;;14.00;99.90;;;;;;5013969;28;20212;-56
2023/05/24 08:28:32;;;;;;;14.10;12.27;;;14.10;99.90;;;;;;5014762;28;20267;-56
2023/05/24 08:31:00;;;;;;;12.90;10.77;;;14.20;99.90;;;;;;5006960;28;20201;-56
2023/05/24 08:33:29;;;;;;;14.60;11.93;;;14.30;99.90;;;;;;5007160;28;20298;-56
2023/05/24 08:35:56;;;;;;;13.07;11.10;;;14.40;99.90;;;;;;5014366;28;20322;-56
2023/05/24 08:38:23;;;;;;;13.70;11.13;;;14.50;99.90;;;;;;5014368;28;20223;-56
2023/05/24 08:40:51;;;;;;;12.60;10.90;;;14.40;99.90;;;;;;5012586;28;20669;-56
2023/05/24 08:43:19;;;;;;;15.17;12.30;;;14.50;99.90;;;;;;5011510;28;20202;-56
2023/05/24 08:45:46;;;;;;;13.00;11.17;;;14.50;99.90;;;;;;5012741;28;20211;-56
2023/05/24 08:48:14;;;;;;;14.13;10.63;;;14.50;99.90;;;;;;5016493;28;20226;-56
2023/05/24 08:50:44;;;;;;;14.50;10.33;;;14.50;99.90;;;;;;5015136;28;20229;-56
2023/05/24 08:53:12;;;;;;;11.60;10.40;;;14.30;99.90;;;;;;5018623;28;20275;-56
2023/05/24 08:55:41;;;;;;;11.60;9.97;;;14.10;99.90;;;;;;5023965;28;20226;-56
2023/05/24 08:58:09;;;;;;;13.87;9.83;;;14.00;99.90;;;;;;5022751;28;20268;-56
2023/05/24 09:00:36;;;;;;;14.50;10.10;;;13.90;99.90;;;;;;5013090;28;20218;-56
2023/05/24 09:03:06;;;;;;;12.73;10.10;;;13.70;99.90;;;;;;5012100;28;20274;-56
2023/05/24 09:05:34;;;;;;;11.80;9.60;;;13.80;99.90;;;;;;5011100;28;20232;-53
2023/05/24 09:08:03;;;;;;;14.17;11.03;;;13.90;99.90;;;;;;5010372;28;20222;-53
2023/05/24 09:10:32;;;;;;;12.77;9.77;;;14.10;99.90;;;;;;5007471;28;20556;-53
2023/05/24 09:13:03;;;;;;;11.20;8.80;;;14.10;99.90;;;;;;5004496;28;20206;-57
2023/05/24 09:15:30;;;;;;;10.00;8.60;;;14.10;99.90;;;;;;5007895;28;20261;-56
2023/05/24 09:17:57;;;;;;;9.57;8.53;;;14.10;99.90;;;;;;5015455;28;20225;-56
2023/05/24 09:20:24;;;;;;;12.17;8.93;;;14.00;99.90;;;;;;5016208;28;20198;-56
2023/05/24 09:22:53;;;;;;;10.53;8.03;;;14.20;99.90;;;;;;5016806;28;20201;-58
2023/05/24 09:25:21;;;;;;;13.33;9.17;;;14.20;99.90;;;;;;5023079;28;20269;-59
2023/05/24 09:27:52;;;;;;;11.50;8.07;;;14.10;99.90;;;;;;5017440;28;20222;-61
2023/05/24 09:30:20;;;;;;;9.67;8.67;;;13.90;99.90;;;;;;5033532;28;20202;-58
2023/05/24 09:32:57;;;;;;;11.80;7.67;;;13.80;99.90;;;;;;5018059;28;20208;-59
2023/05/24 09:35:25;;;;;;;11.33;8.97;;;13.60;99.90;;;;;;5013978;28;20205;-60
2023/05/24 09:37:56;;;;;;;11.50;9.53;;;13.50;99.90;;;;;;5014347;28;20226;-59
2023/05/24 09:40:24;;;;;;;10.50;9.40;;;13.60;99.90;;;;;;5014390;28;20693;-60
2023/05/24 09:43:03;;;;;;;10.37;8.83;;;13.60;99.90;;;;;;5013774;28;20199;-59
2023/05/24 09:45:30;;;;;;;12.17;8.23;;;13.70;99.90;;;;;;5013569;28;20732;-60
2023/05/24 09:47:58;;;;;;;14.87;8.23;;;13.80;99.90;;;;;;5024049;28;20565;-61
2023/05/24 09:50:27;;;;;;;16.47;9.13;;;13.50;99.90;;;;;;5034924;28;20299;-62
2023/05/24 09:52:55;;;;;;;10.33;8.57;;;13.50;99.90;;;;;;5025801;28;20592;-60
2023/05/24 09:55:22;;;;;;;8.27;7.43;;;13.50;99.90;;;;;;5027825;28;20200;-59
2023/05/24 09:57:53;;;;;;;11.27;9.77;;;13.50;99.90;;;;;;5013375;28;20231;-58
2023/05/24 10:00:23;;;;;;;10.33;9.20;;;13.60;99.90;;;;;;5024622;28;20251;-58
2023/05/24 10:03:02;;;;;;;11.73;8.97;;;13.60;99.90;;;;;;5032645;28;20213;-60
2023/05/24 10:05:29;;;;;;;9.87;8.73;;;13.60;99.90;;;;;;5034585;28;20202;-59
2023/05/24 10:07:57;;;;;;;9.93;8.30;;;13.50;99.90;;;;;;5025371;28;20221;-60
2023/05/24 10:10:27;;;;;;;11.63;8.80;;;13.50;99.90;;;;;;5027117;28;20220;-61
2023/05/24 10:12:56;;;;;;;11.10;8.20;;;13.60;99.90;;;;;;5033385;28;20202;-58
2023/05/24 10:15:23;;;;;;;9.57;8.43;;;13.70;99.90;;;;;;5020751;28;20261;-61
2023/05/24 10:17:51;;;;;;;10.63;7.53;;;13.70;99.90;;;;;;5012762;28;20232;-63
2023/05/24 10:20:18;;;;;;;12.93;8.57;;;13.80;99.90;;;;;;5013308;28;20195;-70
2023/05/24 10:22:47;;;;;;;10.33;8.13;;;13.70;99.90;;;;;;5020811;28;20276;-63
2023/05/24 10:25:20;;;;;;;11.40;8.53;;;13.80;99.90;;;;;;5025251;28;20249;-65
2023/05/24 10:27:49;;;;;;;10.73;9.30;;;13.80;99.90;;;;;;5032633;28;20226;-54
2023/05/24 10:30:26;;;;;;;13.83;8.33;;;14.00;99.90;;;;;;5032413;28;20268;-54
2023/05/24 10:32:55;;;;;;;12.10;7.90;;;14.20;99.90;;;;;;5015698;28;20219;-52
2023/05/24 10:35:23;;;;;;;8.33;7.33;;;14.20;99.90;;;;;;5009676;28;20209;-52
2023/05/24 10:37:51;;;;;;;8.97;8.07;;;14.00;99.90;;;;;;5018962;28;20225;-52
2023/05/24 10:40:19;;;;;;;8.50;7.60;;;14.00;99.90;;;;;;5032235;28;20203;-52
2023/05/24 10:42:47;;;;;;;12.67;8.40;;;14.10;99.90;;;;;;5024640;28;20206;-58
2023/05/24 10:45:34;;;;;;;10.07;8.37;;;14.00;99.90;;;;;;5015762;28;20560;-60
2023/05/24 10:48:37;;;;;;;9.03;6.67;;;14.10;99.90;;;;;;5012714;28;20227;-59
2023/05/24 10:51:37;;;;;;;7.70;6.37;;;14.20;99.90;;;;;;5009404;28;20198;-59
2023/05/24 10:54:20;;;;;;;8.97;8.00;;;14.20;99.90;;;;;;5024203;28;20934;-61
2023/05/24 10:56:49;;;;;;;11.80;8.53;;;14.10;99.90;;;;;;5011573;28;20261;-64
2023/05/24 10:59:24;;;;;;;11.83;8.00;;;14.00;99.90;;;;;;5023711;28;20198;-60
2023/05/24 11:02:02;;;;;;;13.50;8.37;;;13.90;99.90;;;;;;5031820;28;20216;-59
2023/05/24 11:04:36;;;;;;;9.33;7.97;;;13.80;99.90;;;;;;5018493;28;20289;-59
2023/05/24 11:07:09;;;;;;;10.03;7.83;;;13.80;99.90;;;;;;5025317;28;20661;-63
2023/05/24 11:09:37;;;;;;;19.30;10.67;;;13.70;99.90;;;;;;5029525;28;20583;-64
2023/05/24 11:12:08;;;;;;;9.83;8.00;;;13.60;99.90;;;;;;5023295;28;20233;-58
2023/05/24 11:14:38;;;;;;;9.90;8.10;;;13.70;99.90;;;;;;5010989;28;20206;-59
2023/05/24 11:17:10;;;;;;;12.17;7.57;;;13.90;99.90;;;;;;5028002;28;20245;-58
2023/05/24 11:19:38;;;;;;;12.77;8.00;;;14.10;99.90;;;;;;5012457;28;20291;-60
2023/05/24 11:22:08;;;;;;;8.43;7.73;;;14.20;99.90;;;;;;5011425;28;20199;-59
2023/05/24 11:24:37;;;;;;;10.27;8.00;;;14.40;99.90;;;;;;5013121;28;20207;-62
2023/05/24 11:27:08;;;;;;;11.87;8.23;;;14.50;99.90;;;;;;5017368;28;20659;-59
2023/05/24 11:29:43;;;;;;;10.93;7.40;;;14.90;99.90;;;;;;5016019;28;20259;-58
2023/05/24 11:32:15;;;;;;;11.90;7.90;;;15.30;99.90;;;;;;4994140;28;20187;-59
2023/05/24 11:34:43;;;;;;;12.40;7.83;;;15.40;99.90;;;;;;5012375;28;20668;-60
2023/05/24 11:37:11;;;;;;;12.23;8.43;;;15.40;99.90;;;;;;5012039;28;20249;-59
2023/05/24 11:39:39;;;;;;;11.70;8.47;;;15.40;99.90;;;;;;5010582;28;20584;-60
2023/05/24 11:42:07;;;;;;;10.97;7.20;;;15.20;99.90;;;;;;5026222;28;20222;-59
2023/05/24 11:44:36;;;;;;;11.37;8.53;;;15.10;99.90;;;;;;5024185;28;20199;-59
2023/05/24 11:47:07;;;;;;;9.63;7.43;;;15.00;99.90;;;;;;5027352;28;20221;-59
2023/05/24 11:49:39;;;;;;;10.37;7.67;;;14.80;99.90;;;;;;5035451;28;20205;-60
2023/05/24 11:52:07;;;;;;;11.23;8.33;;;14.60;99.90;;;;;;5036646;28;20263;-61
2023/05/24 11:54:36;;;;;;;12.27;8.10;;;14.60;99.90;;;;;;5028194;28;20209;-60
2023/05/24 11:57:06;;;;;;;9.23;7.33;;;14.50;99.90;;;;;;5023318;28;20233;-59
2023/05/24 11:59:36;;;;;;;10.27;8.17;;;14.50;99.90;;;;;;5022317;28;20214;-59
2023/05/24 12:02:07;;;;;;;12.50;8.90;;;14.50;99.90;;;;;;5027772;28;20229;-62
2023/05/24 12:04:38;;;;;;;8.50;7.40;;;14.40;99.90;;;;;;5037418;28;20206;-62
2023/05/24 12:07:11;;;;;;;13.80;8.50;;;14.30;99.90;;;;;;5032734;28;20218;-61
2023/05/24 12:09:38;;;;;;;12.87;8.17;;;14.40;99.90;;;;;;5020229;28;20223;-59
2023/05/24 12:12:06;;;;;;;10.23;8.03;;;14.30;99.90;;;;;;5026155;28;20225;-62
2023/05/24 12:14:35;;;;;;;12.07;8.57;;;14.40;99.90;;;;;;5021522;28;20248;-59
2023/05/24 12:17:04;;;;;;;10.70;7.73;;;14.40;99.90;;;;;;5014876;28;20701;-60
2023/05/24 12:19:33;;;;;;;13.20;9.33;;;14.40;99.90;;;;;;5015600;28;20202;-61
2023/05/24 12:22:04;;;;;;;8.73;7.93;;;14.40;99.90;;;;;;5014999;28;20211;-61
2023/05/24 12:24:32;;;;;;;16.47;9.37;;;14.50;99.90;;;;;;5022885;28;20563;-60
2023/05/24 12:27:06;;;;;;;9.77;8.77;;;14.60;99.90;;;;;;5034009;28;20357;-60
2023/05/24 12:29:34;;;;;;;10.20;9.27;;;14.60;99.90;;;;;;5034952;28;20207;-61
2023/05/24 12:32:10;;;;;;;13.97;9.37;;;14.70;99.90;;;;;;5017636;28;20211;-64
2023/05/24 12:34:37;;;;;;;9.73;8.30;;;14.70;99.90;;;;;;5014833;28;20207;-59
2023/05/24 12:37:08;;;;;;;11.50;8.47;;;14.80;99.90;;;;;;5015221;28;20222;-57
2023/05/24 12:39:37;;;;;;;11.30;9.87;;;14.90;99.90;;;;;;5026190;28;20201;-58
2023/05/24 12:42:06;;;;;;;14.00;9.97;;;15.00;99.90;;;;;;5034367;28;20272;-59
2023/05/24 12:44:35;;;;;;;11.27;9.30;;;15.20;99.90;;;;;;5034410;28;20213;-62
2023/05/24 12:47:06;;;;;;;11.37;9.23;;;15.10;99.90;;;;;;5033025;28;20782;-62